sensor_id;sensor_type;location;lat;lon;timestamp;P1;durP1;ratioP1;P2;durP2;ratioP2
10825;SDS011;5466;55.898;14.094;2023-07-29T00:01:26;4.32;;;3.10;;
10825;SDS011;5466;55.898;14.094;2023-07-29T00:03:27;5.95;;;3.13;;
10825;SDS011;5466;55.898;14.094;2023-07-29T00:05:30;3.05;;;2.50;;
10825;SDS011;5466;55.898;14.094;2023-07-29T00:07:30;3.67;;;2.90;;
10825;SDS011;5466;55.898;14.094;2023-07-29T00:09:31;4.30;;;3.13;;
10825;SDS011;5466;55.898;14.094;2023-07-29T00:11:31;4.55;;;2.90;;
10825;SDS011;5466;55.898;14.094;2023-07-29T00:13:33;4.18;;;3.17;;
10825;SDS011;5466;55.898;14.094;2023-07-29T00:15:34;3.20;;;2.90;;
10825;SDS011;5466;55.898;14.094;2023-07-29T00:17:35;6.55;;;3.55;;
10825;SDS011;5466;55.898;14.094;2023-07-29T00:19:35;3.45;;;3.15;;
10825;SDS011;5466;55.898;14.094;2023-07-29T00:21:36;6.38;;;3.20;;
10825;SDS011;5466;55.898;14.094;2023-07-29T00:23:37;3.67;;;3.28;;
10825;SDS011;5466;55.898;14.094;2023-07-29T00:25:37;4.40;;;3.20;;
10825;SDS011;5466;55.898;14.094;2023-07-29T00:27:38;9.93;;;3.63;;
10825;SDS011;5466;55.898;14.094;2023-07-29T00:29:39;3.30;;;3.00;;
10825;SDS011;5466;55.898;14.094;2023-07-29T00:31:39;5.25;;;3.20;;
10825;SDS011;5466;55.898;14.094;2023-07-29T00:33:40;3.90;;;3.25;;
10825;SDS011;5466;55.898;14.094;2023-07-29T00:35:40;5.03;;;3.13;;
10825;SDS011;5466;55.898;14.094;2023-07-29T00:37:41;3.80;;;3.40;;
10825;SDS011;5466;55.898;14.094;2023-07-29T00:39:42;4.93;;;3.28;;
10825;SDS011;5466;55.898;14.094;2023-07-29T00:41:42;5.40;;;3.53;;
10825;SDS011;5466;55.898;14.094;2023-07-29T00:43:43;5.57;;;3.72;;
10825;SDS011;5466;55.898;14.094;2023-07-29T00:45:44;3.58;;;3.28;;
10825;SDS011;5466;55.898;14.094;2023-07-29T00:47:45;3.30;;;3.00;;
10825;SDS011;5466;55.898;14.094;2023-07-29T00:49:46;3.67;;;3.10;;
10825;SDS011;5466;55.898;14.094;2023-07-29T00:51:46;3.22;;;2.92;;
10825;SDS011;5466;55.898;14.094;2023-07-29T00:53:47;5.75;;;3.15;;
10825;SDS011;5466;55.898;14.094;2023-07-29T00:55:48;5.68;;;3.28;;
10825;SDS011;5466;55.898;14.094;2023-07-29T00:57:48;5.22;;;3.22;;
10825;SDS011;5466;55.898;14.094;2023-07-29T00:59:51;4.47;;;3.30;;
10825;SDS011;5466;55.898;14.094;2023-07-29T01:01:52;3.70;;;3.10;;
10825;SDS011;5466;55.898;14.094;2023-07-29T01:03:52;7.00;;;3.13;;
10825;SDS011;5466;55.898;14.094;2023-07-29T01:06:12;5.47;;;3.28;;
10825;SDS011;5466;55.898;14.094;2023-07-29T01:10:59;5.55;;;3.25;;
10825;SDS011;5466;55.898;14.094;2023-07-29T01:13:17;3.08;;;2.78;;
10825;SDS011;5466;55.898;14.094;2023-07-29T01:15:24;3.72;;;3.22;;
10825;SDS011;5466;55.898;14.094;2023-07-29T01:17:36;3.67;;;3.38;;
10825;SDS011;5466;55.898;14.094;2023-07-29T01:19:43;3.83;;;3.13;;
10825;SDS011;5466;55.898;14.094;2023-07-29T01:22:01;5.72;;;3.20;;
10825;SDS011;5466;55.898;14.094;2023-07-29T01:24:03;3.15;;;2.85;;
10825;SDS011;5466;55.898;14.094;2023-07-29T01:26:04;3.50;;;3.08;;
10825;SDS011;5466;55.898;14.094;2023-07-29T01:28:04;3.17;;;2.88;;
10825;SDS011;5466;55.898;14.094;2023-07-29T01:30:05;3.63;;;3.25;;
10825;SDS011;5466;55.898;14.094;2023-07-29T01:32:09;3.38;;;3.08;;
10825;SDS011;5466;55.898;14.094;2023-07-29T01:34:23;4.03;;;3.00;;
10825;SDS011;5466;55.898;14.094;2023-07-29T01:36:52;3.65;;;3.28;;
10825;SDS011;5466;55.898;14.094;2023-07-29T01:38:54;4.03;;;3.47;;
10825;SDS011;5466;55.898;14.094;2023-07-29T01:40:56;4.93;;;3.15;;
10825;SDS011;5466;55.898;14.094;2023-07-29T01:42:58;2.65;;;2.40;;
10825;SDS011;5466;55.898;14.094;2023-07-29T01:44:59;3.72;;;3.38;;
10825;SDS011;5466;55.898;14.094;2023-07-29T01:46:59;3.80;;;3.13;;
10825;SDS011;5466;55.898;14.094;2023-07-29T01:49:00;4.50;;;3.50;;
10825;SDS011;5466;55.898;14.094;2023-07-29T01:51:01;3.65;;;3.28;;
10825;SDS011;5466;55.898;14.094;2023-07-29T01:53:01;5.68;;;3.40;;
10825;SDS011;5466;55.898;14.094;2023-07-29T01:55:02;3.90;;;3.40;;
10825;SDS011;5466;55.898;14.094;2023-07-29T01:57:03;5.07;;;3.30;;
10825;SDS011;5466;55.898;14.094;2023-07-29T01:59:03;4.07;;;3.35;;
10825;SDS011;5466;55.898;14.094;2023-07-29T02:01:04;3.53;;;3.03;;
10825;SDS011;5466;55.898;14.094;2023-07-29T02:03:04;5.72;;;3.40;;
10825;SDS011;5466;55.898;14.094;2023-07-29T02:05:05;4.13;;;3.53;;
10825;SDS011;5466;55.898;14.094;2023-07-29T02:07:06;3.97;;;3.40;;
10825;SDS011;5466;55.898;14.094;2023-07-29T02:09:06;7.28;;;3.63;;
10825;SDS011;5466;55.898;14.094;2023-07-29T02:11:07;4.70;;;3.13;;
10825;SDS011;5466;55.898;14.094;2023-07-29T02:13:08;4.60;;;3.55;;
10825;SDS011;5466;55.898;14.094;2023-07-29T02:15:09;5.40;;;3.50;;
10825;SDS011;5466;55.898;14.094;2023-07-29T02:17:09;6.95;;;3.65;;
10825;SDS011;5466;55.898;14.094;2023-07-29T02:19:10;4.93;;;3.30;;
10825;SDS011;5466;55.898;14.094;2023-07-29T02:21:11;5.13;;;3.58;;
10825;SDS011;5466;55.898;14.094;2023-07-29T02:23:11;8.57;;;3.75;;
10825;SDS011;5466;55.898;14.094;2023-07-29T02:25:12;4.88;;;3.78;;
10825;SDS011;5466;55.898;14.094;2023-07-29T02:27:12;3.38;;;3.08;;
10825;SDS011;5466;55.898;14.094;2023-07-29T02:29:13;3.97;;;3.58;;
10825;SDS011;5466;55.898;14.094;2023-07-29T02:31:21;4.45;;;3.95;;
10825;SDS011;5466;55.898;14.094;2023-07-29T02:33:23;4.80;;;4.00;;
10825;SDS011;5466;55.898;14.094;2023-07-29T02:35:24;4.60;;;3.80;;
10825;SDS011;5466;55.898;14.094;2023-07-29T02:37:24;6.93;;;3.53;;
10825;SDS011;5466;55.898;14.094;2023-07-29T02:39:25;5.13;;;3.80;;
10825;SDS011;5466;55.898;14.094;2023-07-29T02:41:26;4.18;;;3.70;;
10825;SDS011;5466;55.898;14.094;2023-07-29T02:43:26;4.45;;;3.50;;
10825;SDS011;5466;55.898;14.094;2023-07-29T02:45:28;7.13;;;3.47;;
10825;SDS011;5466;55.898;14.094;2023-07-29T02:47:29;4.82;;;3.65;;
10825;SDS011;5466;55.898;14.094;2023-07-29T02:49:29;4.68;;;3.92;;
10825;SDS011;5466;55.898;14.094;2023-07-29T02:51:30;4.32;;;3.60;;
10825;SDS011;5466;55.898;14.094;2023-07-29T02:53:31;4.18;;;3.78;;
10825;SDS011;5466;55.898;14.094;2023-07-29T02:55:31;4.20;;;3.80;;
10825;SDS011;5466;55.898;14.094;2023-07-29T02:57:32;4.05;;;3.60;;
10825;SDS011;5466;55.898;14.094;2023-07-29T02:59:33;4.80;;;3.95;;
10825;SDS011;5466;55.898;14.094;2023-07-29T03:01:33;5.93;;;3.88;;
10825;SDS011;5466;55.898;14.094;2023-07-29T03:03:34;4.38;;;3.97;;
10825;SDS011;5466;55.898;14.094;2023-07-29T03:05:35;6.28;;;4.22;;
10825;SDS011;5466;55.898;14.094;2023-07-29T03:07:35;4.40;;;4.00;;
10825;SDS011;5466;55.898;14.094;2023-07-29T03:09:36;4.68;;;4.20;;
10825;SDS011;5466;55.898;14.094;2023-07-29T03:11:36;5.40;;;4.03;;
10825;SDS011;5466;55.898;14.094;2023-07-29T03:13:37;4.38;;;3.97;;
10825;SDS011;5466;55.898;14.094;2023-07-29T03:15:38;4.47;;;4.03;;
10825;SDS011;5466;55.898;14.094;2023-07-29T03:17:38;5.25;;;3.85;;
10825;SDS011;5466;55.898;14.094;2023-07-29T03:19:39;5.57;;;4.00;;
10825;SDS011;5466;55.898;14.094;2023-07-29T03:21:39;5.95;;;4.18;;
10825;SDS011;5466;55.898;14.094;2023-07-29T03:23:40;4.50;;;4.07;;
10825;SDS011;5466;55.898;14.094;2023-07-29T03:25:41;6.15;;;3.92;;
10825;SDS011;5466;55.898;14.094;2023-07-29T03:27:42;4.18;;;3.78;;
10825;SDS011;5466;55.898;14.094;2023-07-29T03:29:42;5.00;;;3.88;;
10825;SDS011;5466;55.898;14.094;2023-07-29T03:31:43;3.97;;;3.50;;
10825;SDS011;5466;55.898;14.094;2023-07-29T03:33:43;4.28;;;3.88;;
10825;SDS011;5466;55.898;14.094;2023-07-29T03:35:44;5.40;;;4.40;;
10825;SDS011;5466;55.898;14.094;2023-07-29T03:37:45;4.22;;;3.83;;
10825;SDS011;5466;55.898;14.094;2023-07-29T03:39:45;4.80;;;4.10;;
10825;SDS011;5466;55.898;14.094;2023-07-29T03:41:46;6.53;;;3.88;;
10825;SDS011;5466;55.898;14.094;2023-07-29T03:43:47;4.38;;;3.83;;
10825;SDS011;5466;55.898;14.094;2023-07-29T03:45:47;5.32;;;3.90;;
10825;SDS011;5466;55.898;14.094;2023-07-29T03:47:48;4.45;;;3.80;;
10825;SDS011;5466;55.898;14.094;2023-07-29T03:49:49;4.32;;;3.92;;
10825;SDS011;5466;55.898;14.094;2023-07-29T03:51:50;3.95;;;3.60;;
10825;SDS011;5466;55.898;14.094;2023-07-29T03:53:50;4.10;;;3.70;;
10825;SDS011;5466;55.898;14.094;2023-07-29T03:55:51;4.50;;;4.05;;
10825;SDS011;5466;55.898;14.094;2023-07-29T03:57:51;5.20;;;3.78;;
10825;SDS011;5466;55.898;14.094;2023-07-29T03:59:52;4.60;;;4.00;;
10825;SDS011;5466;55.898;14.094;2023-07-29T04:01:52;3.97;;;3.60;;
10825;SDS011;5466;55.898;14.094;2023-07-29T04:03:53;4.53;;;3.83;;
10825;SDS011;5466;55.898;14.094;2023-07-29T04:05:54;6.45;;;3.72;;
10825;SDS011;5466;55.898;14.094;2023-07-29T04:07:55;4.28;;;3.47;;
10825;SDS011;5466;55.898;14.094;2023-07-29T04:09:55;3.97;;;3.50;;
10825;SDS011;5466;55.898;14.094;2023-07-29T04:11:56;4.00;;;3.60;;
10825;SDS011;5466;55.898;14.094;2023-07-29T04:13:57;3.67;;;3.38;;
10825;SDS011;5466;55.898;14.094;2023-07-29T04:15:57;4.70;;;3.45;;
10825;SDS011;5466;55.898;14.094;2023-07-29T04:17:58;3.50;;;3.20;;
10825;SDS011;5466;55.898;14.094;2023-07-29T04:19:59;5.20;;;3.58;;
10825;SDS011;5466;55.898;14.094;2023-07-29T04:21:59;4.35;;;3.30;;
10825;SDS011;5466;55.898;14.094;2023-07-29T04:24:00;5.38;;;3.65;;
10825;SDS011;5466;55.898;14.094;2023-07-29T04:26:01;4.90;;;3.75;;
10825;SDS011;5466;55.898;14.094;2023-07-29T04:28:01;5.57;;;3.70;;
10825;SDS011;5466;55.898;14.094;2023-07-29T04:30:03;3.63;;;3.33;;
10825;SDS011;5466;55.898;14.094;2023-07-29T04:32:04;6.00;;;4.15;;
10825;SDS011;5466;55.898;14.094;2023-07-29T04:34:05;3.90;;;3.50;;
10825;SDS011;5466;55.898;14.094;2023-07-29T04:36:06;4.32;;;3.75;;
10825;SDS011;5466;55.898;14.094;2023-07-29T04:38:06;4.40;;;4.00;;
10825;SDS011;5466;55.898;14.094;2023-07-29T04:40:07;4.10;;;3.67;;
10825;SDS011;5466;55.898;14.094;2023-07-29T04:42:08;6.78;;;4.35;;
10825;SDS011;5466;55.898;14.094;2023-07-29T04:44:08;6.68;;;3.67;;
10825;SDS011;5466;55.898;14.094;2023-07-29T04:46:09;7.50;;;4.18;;
10825;SDS011;5466;55.898;14.094;2023-07-29T04:48:10;4.93;;;3.72;;
10825;SDS011;5466;55.898;14.094;2023-07-29T04:50:10;5.00;;;3.83;;
10825;SDS011;5466;55.898;14.094;2023-07-29T04:52:11;6.55;;;3.88;;
10825;SDS011;5466;55.898;14.094;2023-07-29T04:54:11;3.28;;;2.97;;
10825;SDS011;5466;55.898;14.094;2023-07-29T04:56:12;2.97;;;2.70;;
10825;SDS011;5466;55.898;14.094;2023-07-29T04:58:13;6.72;;;2.80;;
10825;SDS011;5466;55.898;14.094;2023-07-29T05:00:13;3.20;;;2.90;;
10825;SDS011;5466;55.898;14.094;2023-07-29T05:02:14;3.97;;;3.03;;
10825;SDS011;5466;55.898;14.094;2023-07-29T05:04:15;3.05;;;2.70;;
10825;SDS011;5466;55.898;14.094;2023-07-29T05:06:16;2.50;;;2.30;;
10825;SDS011;5466;55.898;14.094;2023-07-29T05:08:16;4.65;;;2.53;;
10825;SDS011;5466;55.898;14.094;2023-07-29T05:10:17;3.08;;;2.78;;
10825;SDS011;5466;55.898;14.094;2023-07-29T05:12:18;3.10;;;2.60;;
10825;SDS011;5466;55.898;14.094;2023-07-29T05:14:18;2.75;;;2.47;;
10825;SDS011;5466;55.898;14.094;2023-07-29T05:16:19;3.67;;;2.38;;
10825;SDS011;5466;55.898;14.094;2023-07-29T05:18:19;3.90;;;2.83;;
10825;SDS011;5466;55.898;14.094;2023-07-29T05:20:20;2.80;;;2.60;;
10825;SDS011;5466;55.898;14.094;2023-07-29T05:22:21;3.63;;;2.72;;
10825;SDS011;5466;55.898;14.094;2023-07-29T05:24:21;3.75;;;2.70;;
10825;SDS011;5466;55.898;14.094;2023-07-29T05:26:23;3.67;;;2.50;;
10825;SDS011;5466;55.898;14.094;2023-07-29T05:28:23;4.50;;;3.00;;
10825;SDS011;5466;55.898;14.094;2023-07-29T05:30:24;3.38;;;3.08;;
10825;SDS011;5466;55.898;14.094;2023-07-29T05:32:26;3.08;;;2.65;;
10825;SDS011;5466;55.898;14.094;2023-07-29T05:34:27;3.95;;;2.75;;
10825;SDS011;5466;55.898;14.094;2023-07-29T05:36:28;2.83;;;2.60;;
10825;SDS011;5466;55.898;14.094;2023-07-29T05:38:29;6.38;;;3.00;;
10825;SDS011;5466;55.898;14.094;2023-07-29T05:40:29;3.72;;;2.70;;
10825;SDS011;5466;55.898;14.094;2023-07-29T05:42:30;2.88;;;2.58;;
10825;SDS011;5466;55.898;14.094;2023-07-29T05:44:31;2.40;;;2.20;;
10825;SDS011;5466;55.898;14.094;2023-07-29T05:46:31;2.63;;;2.42;;
10825;SDS011;5466;55.898;14.094;2023-07-29T05:48:32;3.75;;;2.22;;
10825;SDS011;5466;55.898;14.094;2023-07-29T05:50:33;2.50;;;1.90;;
10825;SDS011;5466;55.898;14.094;2023-07-29T05:52:34;2.08;;;1.80;;
10825;SDS011;5466;55.898;14.094;2023-07-29T05:54:34;2.22;;;2.03;;
10825;SDS011;5466;55.898;14.094;2023-07-29T05:56:35;2.70;;;1.83;;
10825;SDS011;5466;55.898;14.094;2023-07-29T05:58:36;3.40;;;1.80;;
10825;SDS011;5466;55.898;14.094;2023-07-29T06:00:36;2.15;;;1.95;;
10825;SDS011;5466;55.898;14.094;2023-07-29T06:02:37;3.20;;;1.92;;
10825;SDS011;5466;55.898;14.094;2023-07-29T06:04:37;2.20;;;1.50;;
10825;SDS011;5466;55.898;14.094;2023-07-29T06:06:38;2.00;;;1.60;;
10825;SDS011;5466;55.898;14.094;2023-07-29T06:08:39;2.22;;;2.03;;
10825;SDS011;5466;55.898;14.094;2023-07-29T06:10:39;2.17;;;1.50;;
10825;SDS011;5466;55.898;14.094;2023-07-29T06:12:40;5.07;;;1.83;;
10825;SDS011;5466;55.898;14.094;2023-07-29T06:14:40;2.15;;;1.80;;
10825;SDS011;5466;55.898;14.094;2023-07-29T06:16:41;1.98;;;1.70;;
10825;SDS011;5466;55.898;14.094;2023-07-29T06:18:41;1.90;;;1.80;;
10825;SDS011;5466;55.898;14.094;2023-07-29T06:20:42;1.58;;;1.48;;
10825;SDS011;5466;55.898;14.094;2023-07-29T06:22:43;2.05;;;1.70;;
10825;SDS011;5466;55.898;14.094;2023-07-29T06:24:43;2.15;;;1.60;;
10825;SDS011;5466;55.898;14.094;2023-07-29T06:26:44;2.25;;;1.60;;
10825;SDS011;5466;55.898;14.094;2023-07-29T06:28:44;3.50;;;1.60;;
10825;SDS011;5466;55.898;14.094;2023-07-29T06:30:45;2.42;;;1.50;;
10825;SDS011;5466;55.898;14.094;2023-07-29T06:32:46;1.75;;;1.60;;
10825;SDS011;5466;55.898;14.094;2023-07-29T06:34:46;1.92;;;1.83;;
10825;SDS011;5466;55.898;14.094;2023-07-29T06:36:47;3.47;;;1.60;;
10825;SDS011;5466;55.898;14.094;2023-07-29T06:38:47;1.80;;;1.70;;
10825;SDS011;5466;55.898;14.094;2023-07-29T06:40:48;3.30;;;1.90;;
10825;SDS011;5466;55.898;14.094;2023-07-29T06:42:49;2.35;;;1.65;;
10825;SDS011;5466;55.898;14.094;2023-07-29T06:44:50;2.13;;;1.85;;
10825;SDS011;5466;55.898;14.094;2023-07-29T06:46:50;1.90;;;1.70;;
10825;SDS011;5466;55.898;14.094;2023-07-29T06:48:51;1.75;;;1.65;;
10825;SDS011;5466;55.898;14.094;2023-07-29T06:50:51;1.95;;;1.65;;
10825;SDS011;5466;55.898;14.094;2023-07-29T06:52:52;3.30;;;1.77;;
10825;SDS011;5466;55.898;14.094;2023-07-29T06:54:52;2.00;;;1.90;;
10825;SDS011;5466;55.898;14.094;2023-07-29T06:56:53;2.03;;;1.80;;
10825;SDS011;5466;55.898;14.094;2023-07-29T06:58:54;2.20;;;1.98;;
10825;SDS011;5466;55.898;14.094;2023-07-29T07:00:54;1.65;;;1.55;;
10825;SDS011;5466;55.898;14.094;2023-07-29T07:02:55;3.92;;;1.90;;
10825;SDS011;5466;55.898;14.094;2023-07-29T07:04:55;2.30;;;1.70;;
10825;SDS011;5466;55.898;14.094;2023-07-29T07:06:56;2.85;;;1.92;;
10825;SDS011;5466;55.898;14.094;2023-07-29T07:08:57;1.63;;;1.52;;
10825;SDS011;5466;55.898;14.094;2023-07-29T07:10:57;1.63;;;1.50;;
10825;SDS011;5466;55.898;14.094;2023-07-29T07:12:58;2.67;;;1.77;;
10825;SDS011;5466;55.898;14.094;2023-07-29T07:14:59;2.53;;;1.85;;
10825;SDS011;5466;55.898;14.094;2023-07-29T07:17:00;2.40;;;1.60;;
10825;SDS011;5466;55.898;14.094;2023-07-29T07:19:01;1.80;;;1.70;;
10825;SDS011;5466;55.898;14.094;2023-07-29T07:21:01;4.30;;;1.60;;
10825;SDS011;5466;55.898;14.094;2023-07-29T07:23:02;2.75;;;1.85;;
10825;SDS011;5466;55.898;14.094;2023-07-29T07:25:03;2.28;;;1.73;;
10825;SDS011;5466;55.898;14.094;2023-07-29T07:27:04;1.70;;;1.60;;
10825;SDS011;5466;55.898;14.094;2023-07-29T07:29:05;4.70;;;2.15;;
10825;SDS011;5466;55.898;14.094;2023-07-29T07:31:05;4.10;;;1.65;;
10825;SDS011;5466;55.898;14.094;2023-07-29T07:33:06;3.05;;;1.65;;
10825;SDS011;5466;55.898;14.094;2023-07-29T07:35:07;1.95;;;1.85;;
10825;SDS011;5466;55.898;14.094;2023-07-29T07:37:08;1.85;;;1.55;;
10825;SDS011;5466;55.898;14.094;2023-07-29T07:39:09;2.47;;;1.75;;
10825;SDS011;5466;55.898;14.094;2023-07-29T07:41:09;1.85;;;1.70;;
10825;SDS011;5466;55.898;14.094;2023-07-29T07:43:10;2.05;;;1.60;;
10825;SDS011;5466;55.898;14.094;2023-07-29T07:45:10;1.75;;;1.50;;
10825;SDS011;5466;55.898;14.094;2023-07-29T07:47:11;2.00;;;1.70;;
10825;SDS011;5466;55.898;14.094;2023-07-29T07:49:11;2.95;;;1.52;;
10825;SDS011;5466;55.898;14.094;2023-07-29T07:51:13;1.70;;;1.60;;
10825;SDS011;5466;55.898;14.094;2023-07-29T07:53:14;2.33;;;1.50;;
10825;SDS011;5466;55.898;14.094;2023-07-29T07:55:14;1.52;;;1.42;;
10825;SDS011;5466;55.898;14.094;2023-07-29T07:57:15;1.60;;;1.40;;
10825;SDS011;5466;55.898;14.094;2023-07-29T07:59:16;1.55;;;1.42;;
10825;SDS011;5466;55.898;14.094;2023-07-29T08:01:16;1.92;;;1.70;;
10825;SDS011;5466;55.898;14.094;2023-07-29T08:03:17;1.45;;;1.35;;
10825;SDS011;5466;55.898;14.094;2023-07-29T08:05:18;2.42;;;1.60;;
10825;SDS011;5466;55.898;14.094;2023-07-29T08:07:19;2.58;;;1.80;;
10825;SDS011;5466;55.898;14.094;2023-07-29T08:09:19;3.58;;;2.10;;
10825;SDS011;5466;55.898;14.094;2023-07-29T08:11:20;1.98;;;1.85;;
10825;SDS011;5466;55.898;14.094;2023-07-29T08:13:21;2.42;;;1.70;;
10825;SDS011;5466;55.898;14.094;2023-07-29T08:15:22;2.53;;;1.90;;
10825;SDS011;5466;55.898;14.094;2023-07-29T08:17:23;4.32;;;2.05;;
10825;SDS011;5466;55.898;14.094;2023-07-29T08:19:23;3.03;;;1.85;;
10825;SDS011;5466;55.898;14.094;2023-07-29T08:21:24;2.42;;;2.22;;
10825;SDS011;5466;55.898;14.094;2023-07-29T08:23:26;2.72;;;2.00;;
10825;SDS011;5466;55.898;14.094;2023-07-29T08:25:28;2.38;;;1.85;;
10825;SDS011;5466;55.898;14.094;2023-07-29T08:27:29;4.32;;;2.25;;
10825;SDS011;5466;55.898;14.094;2023-07-29T08:29:29;2.28;;;2.08;;
10825;SDS011;5466;55.898;14.094;2023-07-29T08:31:30;3.97;;;2.60;;
10825;SDS011;5466;55.898;14.094;2023-07-29T08:33:33;2.30;;;2.15;;
10825;SDS011;5466;55.898;14.094;2023-07-29T08:35:34;3.58;;;2.47;;
10825;SDS011;5466;55.898;14.094;2023-07-29T08:37:35;2.60;;;2.35;;
10825;SDS011;5466;55.898;14.094;2023-07-29T08:39:35;4.10;;;2.90;;
10825;SDS011;5466;55.898;14.094;2023-07-29T08:41:47;4.32;;;2.42;;
10825;SDS011;5466;55.898;14.094;2023-07-29T08:44:09;3.30;;;3.00;;
10825;SDS011;5466;55.898;14.094;2023-07-29T08:46:15;4.82;;;3.17;;
10825;SDS011;5466;55.898;14.094;2023-07-29T08:48:17;4.38;;;3.30;;
10825;SDS011;5466;55.898;14.094;2023-07-29T08:50:24;3.72;;;3.30;;
10825;SDS011;5466;55.898;14.094;2023-07-29T08:52:25;4.30;;;3.78;;
10825;SDS011;5466;55.898;14.094;2023-07-29T08:54:27;4.32;;;3.60;;
10825;SDS011;5466;55.898;14.094;2023-07-29T08:56:28;4.22;;;3.70;;
10825;SDS011;5466;55.898;14.094;2023-07-29T08:58:30;4.60;;;3.35;;
10825;SDS011;5466;55.898;14.094;2023-07-29T09:00:31;4.80;;;4.35;;
10825;SDS011;5466;55.898;14.094;2023-07-29T09:02:32;7.25;;;4.00;;
10825;SDS011;5466;55.898;14.094;2023-07-29T09:04:33;6.13;;;4.35;;
10825;SDS011;5466;55.898;14.094;2023-07-29T09:06:35;5.57;;;3.78;;
10825;SDS011;5466;55.898;14.094;2023-07-29T09:08:38;4.55;;;4.10;;
10825;SDS011;5466;55.898;14.094;2023-07-29T09:10:39;5.57;;;3.50;;
10825;SDS011;5466;55.898;14.094;2023-07-29T09:12:40;4.03;;;3.30;;
10825;SDS011;5466;55.898;14.094;2023-07-29T09:14:40;4.28;;;3.88;;
10825;SDS011;5466;55.898;14.094;2023-07-29T09:16:41;3.75;;;3.40;;
10825;SDS011;5466;55.898;14.094;2023-07-29T09:18:42;5.72;;;4.00;;
10825;SDS011;5466;55.898;14.094;2023-07-29T09:20:42;6.97;;;3.47;;
10825;SDS011;5466;55.898;14.094;2023-07-29T09:22:43;4.85;;;3.90;;
10825;SDS011;5466;55.898;14.094;2023-07-29T09:24:45;3.80;;;3.30;;
10825;SDS011;5466;55.898;14.094;2023-07-29T09:26:49;4.50;;;3.92;;
10825;SDS011;5466;55.898;14.094;2023-07-29T09:28:51;4.28;;;3.53;;
10825;SDS011;5466;55.898;14.094;2023-07-29T09:30:53;4.63;;;3.70;;
10825;SDS011;5466;55.898;14.094;2023-07-29T09:32:57;4.93;;;3.22;;
10825;SDS011;5466;55.898;14.094;2023-07-29T09:34:58;4.25;;;3.13;;
10825;SDS011;5466;55.898;14.094;2023-07-29T09:36:59;4.57;;;3.38;;
10825;SDS011;5466;55.898;14.094;2023-07-29T09:39:00;3.83;;;3.25;;
10825;SDS011;5466;55.898;14.094;2023-07-29T09:41:01;4.65;;;3.00;;
10825;SDS011;5466;55.898;14.094;2023-07-29T09:43:02;3.88;;;3.53;;
10825;SDS011;5466;55.898;14.094;2023-07-29T09:45:04;5.15;;;3.80;;
10825;SDS011;5466;55.898;14.094;2023-07-29T09:47:05;4.57;;;3.38;;
10825;SDS011;5466;55.898;14.094;2023-07-29T09:49:06;7.97;;;3.70;;
10825;SDS011;5466;55.898;14.094;2023-07-29T09:51:13;3.95;;;3.55;;
10825;SDS011;5466;55.898;14.094;2023-07-29T09:53:15;4.03;;;3.28;;
10825;SDS011;5466;55.898;14.094;2023-07-29T09:55:19;3.20;;;2.90;;
10825;SDS011;5466;55.898;14.094;2023-07-29T09:57:23;3.40;;;3.10;;
10825;SDS011;5466;55.898;14.094;2023-07-29T09:59:24;3.85;;;3.55;;
10825;SDS011;5466;55.898;14.094;2023-07-29T10:01:24;4.68;;;3.13;;
10825;SDS011;5466;55.898;14.094;2023-07-29T10:03:25;3.50;;;2.75;;
10825;SDS011;5466;55.898;14.094;2023-07-29T10:05:27;3.20;;;2.88;;
10825;SDS011;5466;55.898;14.094;2023-07-29T10:07:29;5.47;;;2.95;;
10825;SDS011;5466;55.898;14.094;2023-07-29T10:09:30;3.50;;;3.00;;
10825;SDS011;5466;55.898;14.094;2023-07-29T10:11:31;5.55;;;2.80;;
10825;SDS011;5466;55.898;14.094;2023-07-29T10:13:34;4.13;;;3.00;;
10825;SDS011;5466;55.898;14.094;2023-07-29T10:15:35;3.05;;;2.75;;
10825;SDS011;5466;55.898;14.094;2023-07-29T10:17:36;3.10;;;2.78;;
10825;SDS011;5466;55.898;14.094;2023-07-29T10:19:38;3.40;;;3.10;;
10825;SDS011;5466;55.898;14.094;2023-07-29T10:21:39;3.40;;;3.10;;
10825;SDS011;5466;55.898;14.094;2023-07-29T10:23:46;3.38;;;3.05;;
10825;SDS011;5466;55.898;14.094;2023-07-29T10:25:50;3.03;;;2.72;;
10825;SDS011;5466;55.898;14.094;2023-07-29T10:28:07;4.53;;;2.80;;
10825;SDS011;5466;55.898;14.094;2023-07-29T10:30:08;3.92;;;2.80;;
10825;SDS011;5466;55.898;14.094;2023-07-29T10:32:13;4.80;;;2.80;;
10825;SDS011;5466;55.898;14.094;2023-07-29T10:34:15;3.67;;;2.92;;
10825;SDS011;5466;55.898;14.094;2023-07-29T10:36:16;3.22;;;2.90;;
10825;SDS011;5466;55.898;14.094;2023-07-29T10:38:17;2.95;;;2.60;;
10825;SDS011;5466;55.898;14.094;2023-07-29T10:40:19;3.55;;;2.67;;
10825;SDS011;5466;55.898;14.094;2023-07-29T10:42:20;3.08;;;2.78;;
10825;SDS011;5466;55.898;14.094;2023-07-29T10:44:45;4.35;;;2.90;;
10825;SDS011;5466;55.898;14.094;2023-07-29T10:46:51;2.78;;;2.55;;
10825;SDS011;5466;55.898;14.094;2023-07-29T10:48:53;2.97;;;2.78;;
10825;SDS011;5466;55.898;14.094;2023-07-29T10:53:29;3.10;;;2.80;;
10825;SDS011;5466;55.898;14.094;2023-07-29T10:55:34;3.55;;;3.25;;
10825;SDS011;5466;55.898;14.094;2023-07-29T10:57:39;3.63;;;3.08;;
10825;SDS011;5466;55.898;14.094;2023-07-29T10:59:53;3.33;;;3.03;;
10825;SDS011;5466;55.898;14.094;2023-07-29T11:01:59;3.00;;;2.80;;
10825;SDS011;5466;55.898;14.094;2023-07-29T11:06:26;3.28;;;2.70;;
10825;SDS011;5466;55.898;14.094;2023-07-29T11:08:28;3.42;;;3.13;;
10825;SDS011;5466;55.898;14.094;2023-07-29T11:10:29;3.38;;;2.97;;
10825;SDS011;5466;55.898;14.094;2023-07-29T11:12:47;3.22;;;2.80;;
10825;SDS011;5466;55.898;14.094;2023-07-29T11:14:51;5.30;;;3.42;;
10825;SDS011;5466;55.898;14.094;2023-07-29T11:16:51;5.13;;;3.10;;
10825;SDS011;5466;55.898;14.094;2023-07-29T11:18:53;4.35;;;2.90;;
10825;SDS011;5466;55.898;14.094;2023-07-29T11:20:55;3.00;;;2.75;;
10825;SDS011;5466;55.898;14.094;2023-07-29T11:23:03;3.75;;;2.90;;
10825;SDS011;5466;55.898;14.094;2023-07-29T11:25:04;3.35;;;3.05;;
10825;SDS011;5466;55.898;14.094;2023-07-29T11:27:11;3.85;;;2.90;;
10825;SDS011;5466;55.898;14.094;2023-07-29T11:29:11;5.60;;;2.95;;
10825;SDS011;5466;55.898;14.094;2023-07-29T11:31:12;3.00;;;2.67;;
10825;SDS011;5466;55.898;14.094;2023-07-29T11:33:14;3.67;;;3.22;;
10825;SDS011;5466;55.898;14.094;2023-07-29T11:35:21;5.28;;;3.15;;
10825;SDS011;5466;55.898;14.094;2023-07-29T11:37:21;3.50;;;3.20;;
10825;SDS011;5466;55.898;14.094;2023-07-29T11:39:22;3.72;;;3.30;;
10825;SDS011;5466;55.898;14.094;2023-07-29T11:41:23;3.33;;;3.03;;
10825;SDS011;5466;55.898;14.094;2023-07-29T11:43:23;3.03;;;2.72;;
10825;SDS011;5466;55.898;14.094;2023-07-29T11:45:24;3.15;;;2.80;;
10825;SDS011;5466;55.898;14.094;2023-07-29T11:47:25;3.55;;;2.60;;
10825;SDS011;5466;55.898;14.094;2023-07-29T11:49:26;4.97;;;3.22;;
10825;SDS011;5466;55.898;14.094;2023-07-29T11:51:27;3.33;;;3.03;;
10825;SDS011;5466;55.898;14.094;2023-07-29T11:53:28;3.10;;;2.88;;
10825;SDS011;5466;55.898;14.094;2023-07-29T11:55:30;3.78;;;3.17;;
10825;SDS011;5466;55.898;14.094;2023-07-29T11:57:31;5.35;;;3.08;;
10825;SDS011;5466;55.898;14.094;2023-07-29T11:59:36;4.03;;;2.97;;
10825;SDS011;5466;55.898;14.094;2023-07-29T12:01:37;3.20;;;2.95;;
10825;SDS011;5466;55.898;14.094;2023-07-29T12:03:38;3.42;;;3.13;;
10825;SDS011;5466;55.898;14.094;2023-07-29T12:05:39;3.33;;;3.03;;
10825;SDS011;5466;55.898;14.094;2023-07-29T12:07:41;3.58;;;3.20;;
10825;SDS011;5466;55.898;14.094;2023-07-29T12:09:43;3.28;;;2.80;;
10825;SDS011;5466;55.898;14.094;2023-07-29T12:11:44;4.38;;;2.97;;
10825;SDS011;5466;55.898;14.094;2023-07-29T12:13:46;4.15;;;2.78;;
10825;SDS011;5466;55.898;14.094;2023-07-29T12:15:47;3.05;;;2.83;;
10825;SDS011;5466;55.898;14.094;2023-07-29T12:17:47;3.88;;;2.88;;
10825;SDS011;5466;55.898;14.094;2023-07-29T12:19:48;5.03;;;3.10;;
10825;SDS011;5466;55.898;14.094;2023-07-29T12:21:49;5.05;;;3.10;;